Time;durP1;ratioP1;P1;durP2;ratioP2;P2;SDS_P1;SDS_P2;PMS_P1;PMS_P2;Temp;Humidity;BMP_temperature;BMP_pressure;BME280_temperature;BME280_humidity;BME280_pressure;Samples;Min_cycle;Max_cycle;Signal;HPM_P1;HPM_P2
2022/03/31 00:00:44;;;;;;;1.17;0.80;;;-1.90;99.90;-3.10;99540;;;;571712;247;24119;-82
2022/03/31 00:03:12;;;;;;;0.80;0.80;;;-1.90;99.90;-3.10;99542;;;;572097;247;24122;-82
2022/03/31 00:05:40;;;;;;;1.73;0.67;;;-2.00;99.90;-3.10;99542;;;;572127;247;24082;-82
2022/03/31 00:08:14;;;;;;;1.43;0.80;;;-2.00;99.90;-3.10;99545;;;;572200;247;24135;-83
2022/03/31 00:10:43;;;;;;;1.83;0.77;;;-1.90;99.90;-3.10;99547;;;;571780;247;24125;-80
2022/03/31 00:13:25;;;;;;;1.60;0.77;;;-2.00;99.90;-3.00;99546;;;;571807;247;24186;-80
2022/03/31 00:15:57;;;;;;;1.83;1.00;;;-1.90;99.90;-3.10;99542;;;;570356;247;24140;-81
2022/03/31 00:18:27;;;;;;;0.90;0.90;;;-2.00;99.90;-3.10;99550;;;;571881;247;24116;-81
2022/03/31 00:20:52;;;;;;;1.87;1.07;;;-2.00;99.90;-3.10;99546;;;;571765;247;24099;-79
2022/03/31 00:23:20;;;;;;;2.33;1.13;;;-2.00;99.90;-3.20;99551;;;;571465;247;24199;-77
2022/03/31 00:25:48;;;;;;;2.93;1.30;;;-2.00;99.90;-3.10;99556;;;;576340;247;24085;-77
2022/03/31 00:28:15;;;;;;;2.10;1.50;;;-2.00;99.90;-3.10;99551;;;;571159;247;24131;-79
2022/03/31 00:30:46;;;;;;;0.97;0.90;;;-2.00;99.90;-3.10;99545;;;;572092;246;24196;-78
2022/03/31 00:33:11;;;;;;;2.23;1.13;;;-2.00;99.90;-3.20;99547;;;;573220;247;24179;-81
2022/03/31 00:35:43;;;;;;;0.90;0.90;;;-2.10;99.90;-3.30;99548;;;;571394;247;24115;-77
2022/03/31 00:38:10;;;;;;;1.50;1.20;;;-2.10;99.90;-3.30;99549;;;;572152;247;24111;-78
2022/03/31 00:40:36;;;;;;;1.77;1.20;;;-2.20;99.90;-3.30;99538;;;;572184;247;24086;-79
2022/03/31 00:43:04;;;;;;;1.67;1.17;;;-2.20;99.90;-3.40;99545;;;;571237;247;24147;-79
2022/03/31 00:45:46;;;;;;;2.17;1.30;;;-2.20;99.90;-3.40;99540;;;;572532;247;24093;-80
2022/03/31 00:48:02;;;;;;;1.30;1.20;;;-2.20;99.90;-3.50;99535;;;;571643;247;24097;-79
2022/03/31 00:50:31;;;;;;;2.43;0.97;;;-2.30;99.90;-3.50;99543;;;;569475;247;24132;-80
2022/03/31 00:52:58;;;;;;;1.00;0.90;;;-2.30;99.90;-3.40;99536;;;;571051;247;24082;-80
2022/03/31 00:55:26;;;;;;;1.43;0.90;;;-2.30;99.90;-3.40;99536;;;;571098;247;24146;-79
2022/03/31 00:57:55;;;;;;;3.10;0.70;;;-2.30;99.90;-3.40;99540;;;;567456;247;35324;-78
2022/03/31 01:00:24;;;;;;;2.53;0.93;;;-2.30;99.90;-3.40;99531;;;;576196;247;24118;-78
2022/03/31 01:02:52;;;;;;;0.70;0.67;;;-2.30;99.90;-3.40;99527;;;;574780;247;24125;-79
2022/03/31 01:05:18;;;;;;;1.80;0.70;;;-2.30;99.90;-3.40;99530;;;;572558;247;24097;-81
2022/03/31 01:07:45;;;;;;;0.77;0.77;;;-2.30;99.90;-3.50;99528;;;;571033;247;24131;-80
2022/03/31 01:10:14;;;;;;;2.53;0.77;;;-2.30;99.90;-3.50;99528;;;;572113;247;24091;-80
2022/03/31 01:12:45;;;;;;;1.90;1.10;;;-2.30;99.90;-3.50;99527;;;;571605;247;24111;-81
2022/03/31 01:15:16;;;;;;;1.40;0.60;;;-2.30;99.90;-3.50;99527;;;;571358;247;24131;-79
2022/03/31 01:17:43;;;;;;;0.70;0.60;;;-2.30;99.90;-3.50;99527;;;;570554;247;24154;-80
2022/03/31 01:20:16;;;;;;;1.10;0.93;;;-2.30;99.90;-3.50;99528;;;;571672;247;25140;-81
2022/03/31 01:22:39;;;;;;;0.90;0.60;;;-2.40;99.90;-3.50;99524;;;;571509;247;24199;-81
2022/03/31 01:25:10;;;;;;;0.57;0.57;;;-2.40;99.90;-3.50;99524;;;;570570;247;24142;-83
2022/03/31 01:27:35;;;;;;;0.80;0.80;;;-2.40;99.90;-3.60;99525;;;;575593;247;24199;-80
2022/03/31 01:30:03;;;;;;;0.60;0.60;;;-2.40;99.90;-3.60;99524;;;;571760;247;24104;-80
2022/03/31 01:32:31;;;;;;;0.80;0.80;;;-2.40;99.90;-3.60;99527;;;;571262;247;24155;-80
2022/03/31 01:34:59;;;;;;;1.20;0.90;;;-2.40;99.90;-3.60;99529;;;;565580;247;35248;-81
2022/03/31 01:37:29;;;;;;;0.70;0.70;;;-2.40;99.90;-3.60;99525;;;;570395;247;25123;-81
2022/03/31 01:39:55;;;;;;;1.10;1.10;;;-2.50;99.90;-3.70;99526;;;;571571;247;24187;-80
2022/03/31 01:42:23;;;;;;;0.60;0.60;;;-2.50;99.90;-3.70;99527;;;;571702;246;24097;-80
2022/03/31 01:44:50;;;;;;;1.20;0.80;;;-2.50;99.90;-3.70;99531;;;;571972;247;24171;-81
2022/03/31 01:47:19;;;;;;;0.60;0.60;;;-2.50;99.90;-3.70;99530;;;;572884;247;24121;-80
2022/03/31 01:49:46;;;;;;;0.67;0.67;;;-2.50;99.90;-3.70;99526;;;;571315;247;24092;-79
2022/03/31 01:52:14;;;;;;;0.70;0.70;;;-2.50;99.90;-3.70;99523;;;;572590;247;24101;-79
2022/03/31 01:54:42;;;;;;;0.70;0.70;;;-2.50;99.90;-3.70;99518;;;;566304;247;35162;-78
2022/03/31 01:57:13;;;;;;;1.07;0.77;;;-2.50;99.90;-3.70;99516;;;;572550;247;24165;-78
2022/03/31 01:59:38;;;;;;;0.70;0.70;;;-2.50;99.90;-3.70;99518;;;;572211;247;24090;-81
2022/03/31 02:02:06;;;;;;;0.97;0.97;;;-2.50;99.90;-3.60;99526;;;;572273;247;24165;-82
2022/03/31 02:04:34;;;;;;;0.80;0.80;;;-2.50;99.90;-3.70;99520;;;;572229;247;24108;-80
2022/03/31 02:07:05;;;;;;;0.77;0.73;;;-2.50;99.90;-3.70;99522;;;;571003;247;24118;-79
2022/03/31 02:09:33;;;;;;;0.50;0.50;;;-2.50;99.90;-3.70;99514;;;;572144;247;24129;-81
2022/03/31 02:11:57;;;;;;;0.60;0.60;;;-2.50;99.90;-3.70;99514;;;;571934;247;24093;-81
2022/03/31 02:14:30;;;;;;;0.63;0.63;;;-2.50;99.90;-3.70;99518;;;;571862;247;24136;-80
2022/03/31 02:16:55;;;;;;;2.33;0.87;;;-2.60;99.90;-3.70;99521;;;;571623;247;24144;-79
2022/03/31 02:19:23;;;;;;;0.80;0.80;;;-2.50;99.90;-3.70;99523;;;;570477;247;24160;-81
2022/03/31 02:21:53;;;;;;;0.47;0.47;;;-2.50;99.90;-3.60;99519;;;;571822;247;24217;-80
2022/03/31 02:24:18;;;;;;;1.20;0.80;;;-2.50;99.90;-3.60;99519;;;;571454;247;24100;-81
2022/03/31 02:26:48;;;;;;;1.10;1.00;;;-2.50;99.90;-3.60;99517;;;;571865;247;24182;-80
2022/03/31 02:29:18;;;;;;;1.50;0.70;;;-2.50;99.90;-3.60;99518;;;;570431;247;26213;-82
2022/03/31 02:31:42;;;;;;;0.70;0.70;;;-2.50;99.90;-3.60;99520;;;;571201;247;24129;-80
2022/03/31 02:34:11;;;;;;;1.03;0.50;;;-2.50;99.90;-3.60;99513;;;;570450;247;24208;-79
2022/03/31 02:36:41;;;;;;;0.80;0.80;;;-2.50;99.90;-3.70;99509;;;;570351;247;24135;-78
2022/03/31 02:39:07;;;;;;;1.17;0.80;;;-2.50;99.90;-3.70;99518;;;;569860;247;24137;-78
2022/03/31 02:41:38;;;;;;;1.17;0.80;;;-2.50;99.90;-3.70;99518;;;;571693;247;24120;-78
2022/03/31 02:44:06;;;;;;;3.10;0.80;;;-2.50;99.90;-3.70;99526;;;;571910;247;24198;-78
2022/03/31 02:46:31;;;;;;;0.80;0.80;;;-2.50;99.90;-3.60;99521;;;;571687;247;24160;-80
2022/03/31 02:48:59;;;;;;;4.43;0.80;;;-2.50;99.90;-3.60;99522;;;;571919;247;24101;-79
2022/03/31 02:51:30;;;;;;;2.40;0.60;;;-2.50;99.90;-3.60;99517;;;;572031;247;24111;-79
2022/03/31 02:56:40;;;;;;;0.97;0.90;;;-2.50;99.90;-3.60;99527;;;;573189;247;24184;-81
2022/03/31 02:59:08;;;;;;;0.90;0.90;;;-2.50;99.90;-3.70;99514;;;;572867;247;24108;-79
2022/03/31 03:01:39;;;;;;;2.23;0.90;;;-2.50;99.90;-3.70;99519;;;;572822;247;24120;-78
2022/03/31 03:04:07;;;;;;;1.00;0.70;;;-2.50;99.90;-3.70;99515;;;;572428;247;24119;-78
2022/03/31 03:06:32;;;;;;;0.73;0.73;;;-2.50;99.90;-3.60;99519;;;;571227;247;24121;-80
2022/03/31 03:09:00;;;;;;;0.90;0.73;;;-2.50;99.90;-3.60;99523;;;;571351;247;24093;-80
2022/03/31 03:11:28;;;;;;;2.10;0.70;;;-2.50;99.90;-3.60;99521;;;;571144;247;24109;-79
2022/03/31 03:13:56;;;;;;;0.80;0.80;;;-2.50;99.90;-3.60;99517;;;;571143;247;24151;-78
2022/03/31 03:16:25;;;;;;;0.70;0.70;;;-2.50;99.90;-3.60;99518;;;;572001;247;24149;-78
2022/03/31 03:18:53;;;;;;;1.13;0.90;;;-2.40;99.90;-3.50;99515;;;;572118;247;25156;-81
2022/03/31 03:21:21;;;;;;;0.70;0.70;;;-2.40;99.90;-3.50;99520;;;;572225;247;24139;-81
2022/03/31 03:23:49;;;;;;;3.23;1.20;;;-2.40;99.90;-3.50;99522;;;;572286;247;24147;-81
2022/03/31 03:26:17;;;;;;;2.90;1.10;;;-2.40;99.90;-3.50;99518;;;;572227;247;24135;-81
2022/03/31 03:28:46;;;;;;;2.20;1.13;;;-2.30;99.90;-3.50;99521;;;;572055;247;24113;-81
2022/03/31 03:31:13;;;;;;;3.23;1.23;;;-2.30;99.90;-3.50;99517;;;;570735;247;24171;-79
2022/03/31 03:33:41;;;;;;;1.17;1.07;;;-2.40;99.90;-3.50;99526;;;;580573;247;24149;-78
2022/03/31 03:36:11;;;;;;;0.80;0.80;;;-2.40;99.90;-3.50;99525;;;;571987;247;24119;-80
2022/03/31 03:38:36;;;;;;;1.00;1.00;;;-2.40;99.90;-3.40;99522;;;;575291;247;24107;-79
2022/03/31 03:41:04;;;;;;;3.80;1.40;;;-2.30;99.90;-3.50;99524;;;;569673;247;24111;-80
2022/03/31 03:43:35;;;;;;;4.43;1.43;;;-2.30;99.90;-3.40;99519;;;;570864;247;24120;-80
2022/03/31 03:46:00;;;;;;;4.53;1.70;;;-2.30;99.90;-3.40;99521;;;;571893;247;24225;-79
2022/03/31 03:48:28;;;;;;;1.53;1.43;;;-2.30;99.90;-3.40;99528;;;;571033;247;25154;-81
2022/03/31 03:50:56;;;;;;;1.30;1.20;;;-2.30;99.90;-3.40;99520;;;;570664;247;24177;-80
2022/03/31 03:53:25;;;;;;;5.80;1.40;;;-2.30;99.90;-3.40;99528;;;;570569;247;24167;-79
2022/03/31 03:55:52;;;;;;;2.10;1.37;;;-2.30;99.90;-3.30;99531;;;;571900;247;24121;-81
2022/03/31 03:58:20;;;;;;;2.10;1.27;;;-2.20;99.90;-3.30;99530;;;;571788;247;24169;-80
2022/03/31 04:00:48;;;;;;;2.17;1.20;;;-2.20;99.90;-3.30;99532;;;;570557;247;24467;-80
2022/03/31 04:03:17;;;;;;;1.57;1.10;;;-2.20;99.90;-3.30;99530;;;;570550;247;24108;-82
2022/03/31 04:05:44;;;;;;;1.33;1.33;;;-2.20;99.90;-3.30;99525;;;;571807;246;24087;-80
2022/03/31 04:08:12;;;;;;;4.60;1.60;;;-2.20;99.90;-3.30;99525;;;;571557;247;24100;-81
2022/03/31 04:10:40;;;;;;;2.87;1.20;;;-2.20;99.90;-3.30;99538;;;;571252;247;24096;-79
2022/03/31 04:13:08;;;;;;;2.33;1.30;;;-2.20;99.90;-3.30;99536;;;;571304;247;24102;-79
2022/03/31 04:15:36;;;;;;;0.97;0.97;;;-2.20;99.90;-3.30;99543;;;;570999;247;24132;-79
2022/03/31 04:18:07;;;;;;;2.77;1.30;;;-2.20;99.90;-3.20;99538;;;;572457;247;24143;-81
2022/03/31 04:20:32;;;;;;;2.50;1.17;;;-2.10;99.90;-3.20;99541;;;;572154;247;24085;-79
2022/03/31 04:23:02;;;;;;;2.10;1.40;;;-2.10;99.90;-3.20;99537;;;;571344;247;24132;-78
2022/03/31 04:25:28;;;;;;;2.17;1.40;;;-2.10;99.90;-3.30;99539;;;;572095;247;25162;-81
2022/03/31 04:27:57;;;;;;;2.53;1.27;;;-2.10;99.90;-3.20;99537;;;;571082;247;24126;-80
2022/03/31 04:30:26;;;;;;;1.33;1.20;;;-2.20;99.90;-3.20;99537;;;;571036;247;24125;-80
2022/03/31 04:32:53;;;;;;;1.83;1.10;;;-2.10;99.90;-3.20;99537;;;;571072;247;24094;-80
2022/03/31 04:35:21;;;;;;;3.27;1.13;;;-2.10;99.90;-3.20;99542;;;;571016;247;24111;-80
2022/03/31 04:37:48;;;;;;;1.63;1.20;;;-2.10;99.90;-3.10;99538;;;;571038;247;24105;-81
2022/03/31 04:40:16;;;;;;;5.67;1.40;;;-2.00;99.90;-3.10;99546;;;;571161;247;24088;-81
2022/03/31 04:42:46;;;;;;;1.97;1.00;;;-2.00;99.90;-3.00;99550;;;;570849;247;24118;-82
2022/03/31 04:45:12;;;;;;;2.37;1.10;;;-2.00;99.90;-3.00;99552;;;;570518;247;24171;-81
2022/03/31 04:47:40;;;;;;;1.30;0.83;;;-1.90;99.90;-3.00;99565;;;;570652;247;24106;-80
2022/03/31 04:50:08;;;;;;;2.77;1.23;;;-1.90;99.90;-3.00;99554;;;;570556;247;24225;-80
2022/03/31 04:52:36;;;;;;;2.73;1.20;;;-1.80;99.90;-2.90;99562;;;;571637;247;24148;-80
2022/03/31 04:55:05;;;;;;;3.85;1.30;;;-1.80;99.90;-2.90;99566;;;;565411;247;35391;-81
2022/03/31 04:57:33;;;;;;;4.07;1.57;;;-1.80;99.90;-2.90;99560;;;;580400;247;24181;-81
2022/03/31 05:00:03;;;;;;;5.73;2.20;;;-1.70;99.90;-2.80;99554;;;;570515;247;24180;-81
2022/03/31 05:02:28;;;;;;;3.37;1.30;;;-1.70;99.90;-2.80;99555;;;;571427;247;24131;-81
2022/03/31 05:04:56;;;;;;;10.03;1.87;;;-1.70;99.90;-2.70;99560;;;;570711;247;24116;-80
2022/03/31 05:07:24;;;;;;;3.60;1.70;;;-1.60;99.90;-2.70;99557;;;;571692;247;24103;-80
2022/03/31 05:09:53;;;;;;;6.77;2.93;;;-1.60;99.90;-2.60;99564;;;;570326;247;25176;-78
2022/03/31 05:12:20;;;;;;;4.13;2.63;;;-1.50;99.90;-2.50;99567;;;;570466;247;24107;-81
2022/03/31 05:14:48;;;;;;;4.93;3.10;;;-1.40;99.90;-2.40;99567;;;;570384;247;25155;-79
2022/03/31 05:17:16;;;;;;;6.10;2.60;;;-1.30;99.90;-2.20;99573;;;;571373;246;24119;-78
2022/03/31 05:19:44;;;;;;;6.17;2.87;;;-1.20;99.90;-2.00;99574;;;;573112;247;24117;-79
2022/03/31 05:22:12;;;;;;;11.70;2.53;;;-1.00;99.90;-1.80;99576;;;;571571;247;24099;-78
2022/03/31 05:24:40;;;;;;;3.13;2.20;;;-0.50;99.90;-1.50;99570;;;;572810;247;24142;-78
2022/03/31 05:27:09;;;;;;;6.87;2.20;;;0.10;99.90;-0.60;99581;;;;571297;247;24124;-79
2022/03/31 05:29:37;;;;;;;1.80;1.70;;;0.00;99.90;0.70;99589;;;;572569;247;24094;-79
2022/03/31 05:32:05;;;;;;;2.83;1.50;;;1.30;99.90;1.20;99588;;;;572658;247;24125;-77
2022/03/31 05:34:35;;;;;;;1.20;0.93;;;1.90;99.90;2.10;99593;;;;572573;247;24101;-78
2022/03/31 05:37:03;;;;;;;1.20;1.10;;;2.70;99.90;3.50;99598;;;;572375;247;24122;-78
2022/03/31 05:39:29;;;;;;;1.30;0.90;;;4.00;98.10;4.20;99598;;;;572248;247;24081;-78
2022/03/31 05:41:57;;;;;;;4.13;1.03;;;5.90;90.00;5.50;99602;;;;572393;247;24158;-78
2022/03/31 05:44:25;;;;;;;1.17;0.70;;;5.90;89.50;6.80;99615;;;;572381;247;24131;-78
2022/03/31 05:46:54;;;;;;;1.70;1.10;;;8.60;74.30;8.00;99615;;;;572021;247;24112;-78
2022/03/31 05:49:25;;;;;;;1.30;1.13;;;8.50;74.20;9.20;99618;;;;571896;247;24155;-78
2022/03/31 05:51:50;;;;;;;5.93;1.27;;;9.80;68.00;10.10;99635;;;;571550;247;24146;-78
2022/03/31 05:54:18;;;;;;;0.97;0.90;;;10.80;60.80;11.10;99625;;;;571699;247;24094;-78
2022/03/31 05:56:46;;;;;;;7.70;1.30;;;11.80;57.40;11.50;99633;;;;570237;247;24141;-78
2022/03/31 05:59:15;;;;;;;2.60;1.27;;;12.40;55.30;12.30;99633;;;;570480;247;24177;-82
2022/03/31 06:01:41;;;;;;;4.73;1.27;;;13.10;53.70;12.80;99625;;;;570357;247;24095;-78
2022/03/31 06:04:10;;;;;;;1.20;1.10;;;14.10;48.90;13.10;99639;;;;570613;247;24092;-78
2022/03/31 06:06:39;;;;;;;0.87;0.80;;;14.40;48.20;13.20;99646;;;;570482;247;24179;-77
2022/03/31 06:09:07;;;;;;;1.10;0.67;;;14.30;48.10;13.50;99637;;;;570359;247;24136;-80
2022/03/31 06:11:34;;;;;;;3.87;0.97;;;14.60;48.20;14.10;99653;;;;570473;247;24246;-78
2022/03/31 06:14:02;;;;;;;6.47;0.93;;;15.00;47.60;14.60;99647;;;;570387;247;24135;-79
2022/03/31 06:16:31;;;;;;;0.83;0.67;;;15.70;45.00;14.70;99658;;;;570605;247;24180;-80
2022/03/31 06:18:59;;;;;;;5.17;0.73;;;15.70;45.00;15.00;99663;;;;570442;247;24074;-80
2022/03/31 06:21:27;;;;;;;2.30;0.90;;;16.00;44.20;14.80;99663;;;;572163;247;25164;-79
2022/03/31 06:23:55;;;;;;;1.20;0.80;;;16.10;43.30;15.40;99656;;;;570878;247;24069;-78
2022/03/31 06:26:23;;;;;;;2.27;1.40;;;16.30;43.30;16.20;99676;;;;571028;247;24070;-78
2022/03/31 06:28:51;;;;;;;1.23;1.00;;;17.00;41.50;15.90;99669;;;;571977;246;24113;-77
2022/03/31 06:31:19;;;;;;;7.70;1.47;;;17.00;41.50;16.10;99672;;;;572012;247;24079;-80
2022/03/31 06:33:47;;;;;;;1.60;1.50;;;17.20;41.80;15.70;99684;;;;572835;247;24167;-80
2022/03/31 06:36:15;;;;;;;1.77;1.57;;;16.90;41.70;15.50;99685;;;;571886;247;24083;-78
2022/03/31 06:38:43;;;;;;;1.43;1.33;;;16.80;40.50;15.10;99681;;;;571661;247;24071;-78
2022/03/31 06:41:13;;;;;;;2.40;1.20;;;16.40;41.20;15.60;99678;;;;573077;247;24127;-80
2022/03/31 06:43:39;;;;;;;4.33;1.90;;;16.50;41.50;16.00;99688;;;;571722;247;24087;-78
2022/03/31 06:46:10;;;;;;;3.40;1.47;;;16.90;40.70;16.30;99686;;;;576586;247;24073;-79
2022/03/31 06:48:36;;;;;;;2.23;1.20;;;17.20;40.40;17.00;99682;;;;572374;247;24109;-77
2022/03/31 06:51:08;;;;;;;1.43;1.30;;;17.70;39.70;17.90;99691;;;;576913;247;24109;-80
2022/03/31 06:53:36;;;;;;;3.60;1.10;;;18.40;38.60;18.20;99683;;;;572106;247;24080;-79
2022/03/31 06:56:01;;;;;;;2.40;1.00;;;18.90;38.30;18.80;99689;;;;570727;247;24135;-79
2022/03/31 06:58:30;;;;;;;1.23;1.13;;;19.50;37.30;17.60;99695;;;;570778;247;24098;-80
2022/03/31 07:00:58;;;;;;;5.57;1.47;;;19.10;36.50;16.90;99690;;;;570765;247;24080;-79
2022/03/31 07:03:25;;;;;;;1.33;1.20;;;18.40;38.00;17.50;99700;;;;571879;247;24077;-78
2022/03/31 07:05:54;;;;;;;3.90;1.00;;;18.60;37.80;17.50;99693;;;;571248;247;24156;-79
2022/03/31 07:08:22;;;;;;;2.57;1.17;;;18.50;37.70;17.30;99712;;;;571543;247;24211;-78
2022/03/31 07:10:50;;;;;;;1.50;1.17;;;18.50;37.50;17.50;99710;;;;571679;247;24160;-79
2022/03/31 07:13:18;;;;;;;1.33;1.00;;;18.50;38.00;17.50;99700;;;;571665;247;24123;-79
2022/03/31 07:15:46;;;;;;;3.80;1.43;;;18.70;37.40;18.10;99713;;;;570742;247;24230;-80
2022/03/31 07:18:13;;;;;;;5.10;1.00;;;19.00;37.30;17.30;99699;;;;572087;247;24103;-80
2022/03/31 07:20:42;;;;;;;3.07;1.30;;;18.70;37.20;17.00;99710;;;;570925;247;24108;-80
2022/03/31 07:23:09;;;;;;;1.17;1.17;;;18.20;38.00;16.90;99714;;;;570817;247;24078;-79
2022/03/31 07:25:38;;;;;;;1.13;1.13;;;17.40;38.20;15.50;99699;;;;570868;247;24089;-78
2022/03/31 07:28:07;;;;;;;3.07;1.17;;;16.50;39.40;14.70;99718;;;;572065;247;24071;-82
2022/03/31 07:30:37;;;;;;;1.50;1.03;;;16.40;39.30;14.70;99713;;;;570807;247;24085;-80
2022/03/31 07:33:08;;;;;;;1.20;0.90;;;15.90;40.30;15.40;99726;;;;570841;247;24147;-81
2022/03/31 07:35:33;;;;;;;0.80;0.80;;;16.20;40.10;14.40;99718;;;;575681;247;24092;-79
2022/03/31 07:38:07;;;;;;;1.20;1.17;;;14.30;41.60;12.20;99727;;;;571999;247;24119;-79
2022/03/31 07:40:30;;;;;;;0.83;0.83;;;14.30;41.50;11.70;99721;;;;572731;246;24138;-79
2022/03/31 07:42:57;;;;;;;1.20;1.10;;;13.30;43.80;12.20;99718;;;;582008;247;24128;-81
2022/03/31 07:45:28;;;;;;;1.93;0.80;;;13.20;44.90;13.20;99719;;;;573005;247;24157;-82
2022/03/31 07:47:54;;;;;;;2.57;1.30;;;15.10;42.90;14.60;99729;;;;575469;247;24135;-78
2022/03/31 07:50:22;;;;;;;0.93;0.93;;;15.00;42.80;15.90;99725;;;;571159;247;24142;-79
2022/03/31 07:52:50;;;;;;;2.37;1.13;;;16.40;41.30;17.00;99724;;;;571567;247;24093;-77
2022/03/31 07:55:19;;;;;;;1.27;1.20;;;17.60;39.70;18.30;99731;;;;572622;247;24093;-82
2022/03/31 07:57:48;;;;;;;3.63;1.60;;;18.80;38.50;19.30;99730;;;;576117;247;24084;-79
2022/03/31 08:00:14;;;;;;;4.10;1.30;;;20.00;37.10;19.70;99729;;;;580751;247;24105;-82
2022/03/31 08:02:42;;;;;;;1.60;1.50;;;20.70;34.80;20.10;99742;;;;575923;247;24120;-78
2022/03/31 08:05:09;;;;;;;1.20;1.10;;;21.10;34.60;20.10;99730;;;;572173;247;24092;-77
2022/03/31 08:07:37;;;;;;;1.67;1.57;;;21.30;33.70;20.10;99724;;;;571916;247;24164;-78
2022/03/31 08:10:05;;;;;;;1.20;1.20;;;21.40;33.40;19.80;99733;;;;574879;247;24074;-81
2022/03/31 08:12:36;;;;;;;3.37;1.47;;;21.20;34.00;20.50;99736;;;;575394;247;24088;-80
2022/03/31 08:15:04;;;;;;;1.70;1.20;;;21.50;33.40;21.00;99740;;;;575748;247;24093;-79
2022/03/31 08:17:32;;;;;;;3.67;1.00;;;22.10;33.30;21.10;99745;;;;574358;247;24132;-79
2022/03/31 08:20:03;;;;;;;2.23;1.30;;;22.50;31.90;21.30;99749;;;;575442;247;24205;-80
2022/03/31 08:22:29;;;;;;;1.70;1.50;;;22.50;31.90;20.70;99759;;;;571294;247;24142;-80
2022/03/31 08:24:56;;;;;;;1.30;1.30;;;22.40;31.80;19.80;99748;;;;572092;247;23165;-78
2022/03/31 08:27:24;;;;;;;4.17;1.60;;;21.80;32.20;19.20;99759;;;;571106;247;24097;-77
2022/03/31 08:29:52;;;;;;;2.73;1.80;;;21.10;33.00;18.60;99750;;;;571141;247;24113;-82
2022/03/31 08:32:21;;;;;;;3.40;1.60;;;20.70;33.00;19.50;99752;;;;570837;247;24103;-81
2022/03/31 08:34:49;;;;;;;1.17;1.17;;;20.70;32.90;19.20;99734;;;;570430;247;24097;-77
2022/03/31 08:37:18;;;;;;;1.57;1.40;;;20.60;33.20;20.00;99749;;;;570498;247;24111;-78
2022/03/31 08:39:45;;;;;;;3.00;1.20;;;21.00;33.50;20.10;99752;;;;570367;247;24111;-78
2022/03/31 08:42:13;;;;;;;1.57;1.47;;;21.50;32.50;19.20;99761;;;;570278;247;25185;-78
2022/03/31 08:44:41;;;;;;;1.47;1.10;;;21.10;32.30;18.50;99769;;;;570492;247;24149;-78
2022/03/31 08:47:09;;;;;;;1.80;1.53;;;19.70;34.40;17.70;99765;;;;570996;247;24100;-80
2022/03/31 08:49:37;;;;;;;4.07;1.50;;;19.60;34.30;17.70;99763;;;;571785;247;24141;-80
2022/03/31 08:52:05;;;;;;;5.73;1.60;;;19.40;35.20;17.10;99765;;;;572580;246;24146;-78
2022/03/31 08:54:37;;;;;;;1.67;1.53;;;18.80;35.50;17.50;99766;;;;571468;247;24120;-78
2022/03/31 08:57:01;;;;;;;1.97;1.63;;;18.80;36.10;17.80;99752;;;;572467;247;24091;-79
2022/03/31 08:59:32;;;;;;;3.83;1.60;;;19.20;35.60;16.80;99755;;;;571209;247;23138;-79
2022/03/31 09:01:57;;;;;;;3.20;1.60;;;18.50;36.00;16.30;99759;;;;572270;247;24082;-81
2022/03/31 09:04:28;;;;;;;4.47;1.70;;;18.20;37.00;16.20;99767;;;;570877;247;24086;-80
2022/03/31 09:07:11;;;;;;;4.27;1.87;;;17.70;37.70;17.40;99754;;;;571396;247;24157;-80
2022/03/31 09:09:45;;;;;;;5.53;1.60;;;18.40;37.20;18.20;99754;;;;571612;247;24112;-79
2022/03/31 09:12:16;;;;;;;2.63;1.53;;;19.40;36.20;17.90;99748;;;;571933;247;24141;-81
2022/03/31 09:14:41;;;;;;;1.90;1.77;;;19.50;35.60;17.60;99762;;;;571628;247;24103;-79
2022/03/31 09:17:14;;;;;;;2.80;2.10;;;19.30;35.40;18.00;99766;;;;570736;247;24090;-78
2022/03/31 09:19:43;;;;;;;3.27;2.00;;;19.20;35.50;17.20;99768;;;;571882;247;24167;-78
2022/03/31 09:22:11;;;;;;;4.90;2.30;;;19.10;35.50;17.20;99755;;;;572056;247;24132;-78
2022/03/31 09:24:39;;;;;;;2.97;2.07;;;18.80;36.60;16.20;99761;;;;571945;247;24077;-78
2022/03/31 09:27:07;;;;;;;3.37;2.07;;;18.20;37.20;16.40;99754;;;;572239;247;24104;-79
2022/03/31 09:29:36;;;;;;;4.00;2.20;;;18.40;35.60;17.00;99758;;;;572008;247;24093;-79
2022/03/31 09:32:09;;;;;;;2.60;1.77;;;18.40;35.50;17.40;99762;;;;570794;247;24117;-81
2022/03/31 09:34:38;;;;;;;2.47;2.27;;;19.40;33.50;17.90;99757;;;;571776;247;24099;-78
2022/03/31 09:37:06;;;;;;;4.80;2.30;;;19.40;33.40;18.10;99763;;;;571539;247;24133;-79
2022/03/31 09:39:34;;;;;;;4.50;2.50;;;19.80;33.30;18.30;99758;;;;570736;247;24102;-78
2022/03/31 09:42:02;;;;;;;3.53;2.80;;;20.00;32.80;19.20;99761;;;;570810;247;24198;-78
2022/03/31 09:44:31;;;;;;;3.50;3.00;;;21.20;34.10;19.60;99755;;;;571974;247;24090;-76
2022/03/31 09:46:58;;;;;;;11.93;3.47;;;21.20;34.10;18.10;99755;;;;570814;247;24114;-77
2022/03/31 09:49:29;;;;;;;2.87;2.47;;;20.50;34.30;17.70;99744;;;;571965;247;24113;-77
2022/03/31 09:51:54;;;;;;;2.73;2.30;;;19.80;33.70;18.20;99748;;;;575269;247;24128;-76
2022/03/31 09:54:26;;;;;;;8.80;2.70;;;19.90;32.90;18.10;99738;;;;571375;247;24122;-78
2022/03/31 09:56:54;;;;;;;2.60;2.20;;;19.80;32.10;18.00;99748;;;;572029;247;25171;-78
2022/03/31 09:59:25;;;;;;;5.93;2.87;;;19.80;32.10;18.20;99743;;;;580295;247;24177;-78
2022/03/31 10:01:51;;;;;;;5.07;2.90;;;20.00;33.70;18.70;99740;;;;570875;247;24107;-78
2022/03/31 10:04:18;;;;;;;3.80;2.30;;;20.50;33.80;18.80;99737;;;;571712;246;24096;-80
2022/03/31 10:06:45;;;;;;;3.47;2.77;;;20.80;32.30;17.70;99747;;;;572761;247;24066;-77
2022/03/31 10:09:13;;;;;;;7.37;2.83;;;20.30;32.90;16.70;99734;;;;571393;247;24087;-79
2022/03/31 10:11:41;;;;;;;3.93;2.80;;;19.40;34.20;16.50;99752;;;;571415;247;24069;-79
2022/03/31 10:14:30;;;;;;;5.50;2.47;;;18.90;34.60;16.10;99747;;;;572219;247;24129;-82
2022/03/31 10:16:58;;;;;;;4.97;2.50;;;18.40;35.00;15.20;99738;;;;580838;247;24094;-76
2022/03/31 10:19:37;;;;;;;4.33;2.50;;;17.60;35.90;13.70;99742;;;;572277;247;24093;-81
2022/03/31 10:22:05;;;;;;;5.07;2.73;;;16.40;37.90;12.30;99727;;;;572190;247;24135;-78
2022/03/31 10:24:44;;;;;;;3.87;2.60;;;14.70;39.20;10.90;99730;;;;571821;247;24092;-82
2022/03/31 10:27:10;;;;;;;2.30;2.10;;;13.20;41.20;9.60;99737;;;;571985;247;24111;-78
2022/03/31 10:29:41;;;;;;;2.50;2.30;;;11.60;43.20;8.50;99738;;;;572203;247;24103;-78
2022/03/31 10:32:21;;;;;;;9.87;2.50;;;10.40;45.10;7.60;99730;;;;580668;247;26387;-82
2022/03/31 10:34:49;;;;;;;4.43;2.73;;;9.30;47.60;7.00;99712;;;;580752;247;24166;-79
2022/03/31 10:37:17;;;;;;;4.03;2.63;;;8.50;49.20;6.70;99706;;;;572464;247;24104;-80
2022/03/31 10:39:51;;;;;;;6.10;2.70;;;7.90;50.20;6.20;99721;;;;570090;247;24103;-82
2022/03/31 10:42:22;;;;;;;2.63;2.43;;;7.40;51.30;5.70;99721;;;;571074;247;24093;-82
2022/03/31 10:44:46;;;;;;;1.37;1.30;;;6.90;51.50;5.10;99706;;;;575719;247;24132;-82
2022/03/31 10:47:14;;;;;;;3.73;2.70;;;6.40;52.40;4.80;99702;;;;572292;247;24108;-81
2022/03/31 10:49:42;;;;;;;3.20;2.83;;;5.90;53.60;4.60;99702;;;;572133;247;24108;-81
2022/03/31 10:52:16;;;;;;;8.37;3.50;;;5.70;54.60;4.30;99701;;;;569826;247;24095;-80
2022/03/31 10:54:41;;;;;;;6.00;3.63;;;5.40;55.50;4.00;99700;;;;575555;247;24135;-80
2022/03/31 10:57:09;;;;;;;5.23;3.60;;;5.10;56.30;3.80;99692;;;;571994;247;24161;-80
2022/03/31 10:59:37;;;;;;;3.17;2.87;;;4.90;57.40;3.60;99693;;;;570696;247;24181;-80
2022/03/31 11:02:16;;;;;;;4.93;3.70;;;4.60;58.00;3.50;99693;;;;575480;247;24134;-78
2022/03/31 11:04:50;;;;;;;3.80;3.40;;;4.50;58.30;3.40;99693;;;;571960;247;24117;-80
2022/03/31 11:07:22;;;;;;;8.23;3.90;;;4.40;58.10;3.30;99697;;;;572155;247;24103;-82
2022/03/31 11:09:48;;;;;;;8.83;3.67;;;4.30;58.60;3.20;99698;;;;575651;247;24114;-80
2022/03/31 11:12:26;;;;;;;13.20;3.50;;;4.20;58.30;3.20;99701;;;;571247;247;25143;-82
2022/03/31 11:14:57;;;;;;;6.67;3.87;;;4.10;58.30;3.00;99699;;;;570823;246;24106;-81
2022/03/31 11:17:32;;;;;;;3.87;3.20;;;3.90;56.50;2.90;99714;;;;571827;247;24134;-80
2022/03/31 11:19:57;;;;;;;3.37;3.07;;;3.90;57.00;2.80;99695;;;;572618;247;25141;-81
2022/03/31 11:22:30;;;;;;;2.73;2.47;;;3.80;56.20;2.80;99700;;;;571360;247;24104;-81
2022/03/31 11:25:16;;;;;;;3.47;3.03;;;3.80;55.10;2.80;99682;;;;576252;247;24141;-82
2022/03/31 11:27:41;;;;;;;7.57;3.13;;;3.80;55.00;2.80;99688;;;;580770;247;24159;-80